sensor_id;sensor_type;location;lat;lon;timestamp;temperature;humidity
7576;DHT22;3829;50.798;4.358;2024-01-07T00:00:16;4.00;99.90
7576;DHT22;3829;50.798;4.358;2024-01-07T00:02:41;4.10;99.90
7576;DHT22;3829;50.798;4.358;2024-01-07T00:05:07;4.00;99.90
7576;DHT22;3829;50.798;4.358;2024-01-07T00:07:33;3.80;99.90
7576;DHT22;3829;50.798;4.358;2024-01-07T00:09:58;3.90;99.90
7576;DHT22;3829;50.798;4.358;2024-01-07T00:12:24;3.80;99.90
7576;DHT22;3829;50.798;4.358;2024-01-07T00:14:50;3.90;99.90
7576;DHT22;3829;50.798;4.358;2024-01-07T00:17:16;4.00;99.90
7576;DHT22;3829;50.798;4.358;2024-01-07T00:19:42;4.00;99.90
7576;DHT22;3829;50.798;4.358;2024-01-07T00:22:07;4.00;99.90
7576;DHT22;3829;50.798;4.358;2024-01-07T00:24:33;3.70;99.90
7576;DHT22;3829;50.798;4.358;2024-01-07T00:26:58;3.80;99.90
7576;DHT22;3829;50.798;4.358;2024-01-07T00:29:24;3.90;99.90
7576;DHT22;3829;50.798;4.358;2024-01-07T00:31:49;3.90;99.90
7576;DHT22;3829;50.798;4.358;2024-01-07T00:34:15;3.60;99.90
7576;DHT22;3829;50.798;4.358;2024-01-07T00:36:40;3.80;99.90
7576;DHT22;3829;50.798;4.358;2024-01-07T00:39:06;3.70;99.90
7576;DHT22;3829;50.798;4.358;2024-01-07T00:41:31;3.70;99.90
7576;DHT22;3829;50.798;4.358;2024-01-07T00:43:57;3.70;99.90
7576;DHT22;3829;50.798;4.358;2024-01-07T00:46:22;3.80;99.90
7576;DHT22;3829;50.798;4.358;2024-01-07T00:48:48;3.80;99.90
7576;DHT22;3829;50.798;4.358;2024-01-07T00:51:13;3.80;99.90
7576;DHT22;3829;50.798;4.358;2024-01-07T00:53:39;3.80;99.90
7576;DHT22;3829;50.798;4.358;2024-01-07T00:56:05;3.80;99.90
7576;DHT22;3829;50.798;4.358;2024-01-07T00:58:31;3.70;99.90
7576;DHT22;3829;50.798;4.358;2024-01-07T01:00:56;3.80;99.90
7576;DHT22;3829;50.798;4.358;2024-01-07T01:03:22;3.90;99.90
7576;DHT22;3829;50.798;4.358;2024-01-07T01:05:48;4.00;99.90
7576;DHT22;3829;50.798;4.358;2024-01-07T01:08:13;4.10;99.90
7576;DHT22;3829;50.798;4.358;2024-01-07T01:10:39;4.20;99.90
7576;DHT22;3829;50.798;4.358;2024-01-07T01:13:04;3.90;99.90
7576;DHT22;3829;50.798;4.358;2024-01-07T01:15:30;3.80;99.90
7576;DHT22;3829;50.798;4.358;2024-01-07T01:17:55;3.90;99.90
7576;DHT22;3829;50.798;4.358;2024-01-07T01:20:21;3.90;99.90
7576;DHT22;3829;50.798;4.358;2024-01-07T01:22:46;3.80;99.90
7576;DHT22;3829;50.798;4.358;2024-01-07T01:25:12;3.90;99.90
7576;DHT22;3829;50.798;4.358;2024-01-07T01:27:37;3.80;99.90
7576;DHT22;3829;50.798;4.358;2024-01-07T01:30:03;3.90;99.90
7576;DHT22;3829;50.798;4.358;2024-01-07T01:32:29;4.00;99.90
7576;DHT22;3829;50.798;4.358;2024-01-07T01:34:54;3.90;99.90
7576;DHT22;3829;50.798;4.358;2024-01-07T01:37:20;4.20;99.90
7576;DHT22;3829;50.798;4.358;2024-01-07T01:39:45;4.10;99.90
7576;DHT22;3829;50.798;4.358;2024-01-07T01:42:11;4.00;99.90
7576;DHT22;3829;50.798;4.358;2024-01-07T01:44:36;3.90;99.90
7576;DHT22;3829;50.798;4.358;2024-01-07T01:47:02;4.00;99.90
7576;DHT22;3829;50.798;4.358;2024-01-07T01:49:28;3.90;99.90
7576;DHT22;3829;50.798;4.358;2024-01-07T01:51:54;3.80;99.90
7576;DHT22;3829;50.798;4.358;2024-01-07T01:54:20;3.80;99.90
7576;DHT22;3829;50.798;4.358;2024-01-07T01:56:46;3.80;99.90
7576;DHT22;3829;50.798;4.358;2024-01-07T01:59:14;3.90;99.90
7576;DHT22;3829;50.798;4.358;2024-01-07T02:01:40;3.80;99.90
7576;DHT22;3829;50.798;4.358;2024-01-07T02:04:05;3.80;99.90
7576;DHT22;3829;50.798;4.358;2024-01-07T02:06:31;3.80;99.90
7576;DHT22;3829;50.798;4.358;2024-01-07T02:08:57;3.80;99.90
7576;DHT22;3829;50.798;4.358;2024-01-07T02:11:22;3.80;99.90
7576;DHT22;3829;50.798;4.358;2024-01-07T02:13:48;3.80;99.90
7576;DHT22;3829;50.798;4.358;2024-01-07T02:16:14;3.70;99.90
7576;DHT22;3829;50.798;4.358;2024-01-07T02:18:42;3.70;99.90
7576;DHT22;3829;50.798;4.358;2024-01-07T02:21:09;3.70;99.90
7576;DHT22;3829;50.798;4.358;2024-01-07T02:23:35;3.60;99.90
7576;DHT22;3829;50.798;4.358;2024-01-07T02:26:00;3.60;99.90
7576;DHT22;3829;50.798;4.358;2024-01-07T02:28:26;3.60;99.90
7576;DHT22;3829;50.798;4.358;2024-01-07T02:30:51;3.40;99.90
7576;DHT22;3829;50.798;4.358;2024-01-07T02:33:17;3.40;99.90
7576;DHT22;3829;50.798;4.358;2024-01-07T02:35:42;3.40;99.90
7576;DHT22;3829;50.798;4.358;2024-01-07T02:38:08;3.30;99.90
7576;DHT22;3829;50.798;4.358;2024-01-07T02:40:33;3.30;99.90
7576;DHT22;3829;50.798;4.358;2024-01-07T02:42:59;3.30;99.90
7576;DHT22;3829;50.798;4.358;2024-01-07T02:45:24;3.30;99.90
7576;DHT22;3829;50.798;4.358;2024-01-07T02:47:50;3.20;99.90
7576;DHT22;3829;50.798;4.358;2024-01-07T02:50:16;3.20;99.90
7576;DHT22;3829;50.798;4.358;2024-01-07T02:52:42;3.40;99.90
7576;DHT22;3829;50.798;4.358;2024-01-07T02:55:08;3.30;99.90
7576;DHT22;3829;50.798;4.358;2024-01-07T02:57:34;3.30;99.90
7576;DHT22;3829;50.798;4.358;2024-01-07T02:59:59;3.40;99.90
7576;DHT22;3829;50.798;4.358;2024-01-07T03:02:25;3.30;99.90
7576;DHT22;3829;50.798;4.358;2024-01-07T03:04:50;3.30;99.90
7576;DHT22;3829;50.798;4.358;2024-01-07T03:07:16;3.30;99.90
7576;DHT22;3829;50.798;4.358;2024-01-07T03:09:41;3.30;99.90
7576;DHT22;3829;50.798;4.358;2024-01-07T03:12:07;3.20;99.90
7576;DHT22;3829;50.798;4.358;2024-01-07T03:14:32;3.20;99.90
7576;DHT22;3829;50.798;4.358;2024-01-07T03:16:58;3.20;99.90
7576;DHT22;3829;50.798;4.358;2024-01-07T03:19:23;3.20;99.90
7576;DHT22;3829;50.798;4.358;2024-01-07T03:21:49;3.10;99.90
7576;DHT22;3829;50.798;4.358;2024-01-07T03:24:15;3.10;99.90
7576;DHT22;3829;50.798;4.358;2024-01-07T03:26:41;3.20;99.90
7576;DHT22;3829;50.798;4.358;2024-01-07T03:29:06;3.10;99.90
7576;DHT22;3829;50.798;4.358;2024-01-07T03:31:32;3.20;99.90
7576;DHT22;3829;50.798;4.358;2024-01-07T03:33:57;3.20;99.90
7576;DHT22;3829;50.798;4.358;2024-01-07T03:36:23;3.20;99.90
7576;DHT22;3829;50.798;4.358;2024-01-07T03:38:48;3.10;99.90
7576;DHT22;3829;50.798;4.358;2024-01-07T03:41:17;3.20;99.90
7576;DHT22;3829;50.798;4.358;2024-01-07T03:43:44;3.10;99.90
7576;DHT22;3829;50.798;4.358;2024-01-07T03:46:09;3.00;99.90
7576;DHT22;3829;50.798;4.358;2024-01-07T03:48:35;3.10;99.90
7576;DHT22;3829;50.798;4.358;2024-01-07T03:51:00;3.20;99.90
7576;DHT22;3829;50.798;4.358;2024-01-07T03:53:26;3.10;99.90
7576;DHT22;3829;50.798;4.358;2024-01-07T03:55:51;3.00;99.90
7576;DHT22;3829;50.798;4.358;2024-01-07T03:58:17;3.10;99.90
7576;DHT22;3829;50.798;4.358;2024-01-07T04:00:42;3.10;99.90
7576;DHT22;3829;50.798;4.358;2024-01-07T04:03:08;3.10;99.90
7576;DHT22;3829;50.798;4.358;2024-01-07T04:05:33;3.00;99.90
7576;DHT22;3829;50.798;4.358;2024-01-07T04:08:01;3.10;99.90
7576;DHT22;3829;50.798;4.358;2024-01-07T04:10:27;3.20;99.90
7576;DHT22;3829;50.798;4.358;2024-01-07T04:12:52;3.10;99.90
7576;DHT22;3829;50.798;4.358;2024-01-07T04:15:18;3.20;99.90
7576;DHT22;3829;50.798;4.358;2024-01-07T04:17:44;3.10;99.90
7576;DHT22;3829;50.798;4.358;2024-01-07T04:20:13;3.20;99.90
7576;DHT22;3829;50.798;4.358;2024-01-07T04:22:39;3.20;99.90
7576;DHT22;3829;50.798;4.358;2024-01-07T04:25:04;3.30;99.90
7576;DHT22;3829;50.798;4.358;2024-01-07T04:27:34;3.40;99.90
7576;DHT22;3829;50.798;4.358;2024-01-07T04:30:00;3.30;99.90
7576;DHT22;3829;50.798;4.358;2024-01-07T04:32:26;3.30;99.90
7576;DHT22;3829;50.798;4.358;2024-01-07T04:34:52;3.40;99.90
7576;DHT22;3829;50.798;4.358;2024-01-07T04:37:17;3.60;99.90
7576;DHT22;3829;50.798;4.358;2024-01-07T04:39:43;3.50;99.90
7576;DHT22;3829;50.798;4.358;2024-01-07T04:42:08;3.20;99.90
7576;DHT22;3829;50.798;4.358;2024-01-07T04:44:34;3.30;99.90
7576;DHT22;3829;50.798;4.358;2024-01-07T04:46:59;3.20;99.90
7576;DHT22;3829;50.798;4.358;2024-01-07T04:49:25;3.10;99.90
7576;DHT22;3829;50.798;4.358;2024-01-07T04:51:50;2.90;99.90
7576;DHT22;3829;50.798;4.358;2024-01-07T04:54:16;3.10;99.90
7576;DHT22;3829;50.798;4.358;2024-01-07T04:56:41;2.90;99.90
7576;DHT22;3829;50.798;4.358;2024-01-07T04:59:07;3.00;99.90
7576;DHT22;3829;50.798;4.358;2024-01-07T05:01:33;3.10;99.90
7576;DHT22;3829;50.798;4.358;2024-01-07T05:03:59;3.10;99.90
7576;DHT22;3829;50.798;4.358;2024-01-07T05:06:24;2.90;99.90
7576;DHT22;3829;50.798;4.358;2024-01-07T05:08:50;2.90;99.90
7576;DHT22;3829;50.798;4.358;2024-01-07T05:11:15;2.70;99.90
7576;DHT22;3829;50.798;4.358;2024-01-07T05:13:42;2.80;99.90
7576;DHT22;3829;50.798;4.358;2024-01-07T05:16:08;2.80;99.90
7576;DHT22;3829;50.798;4.358;2024-01-07T05:18:33;2.70;99.90
7576;DHT22;3829;50.798;4.358;2024-01-07T05:20:59;2.60;99.90
7576;DHT22;3829;50.798;4.358;2024-01-07T05:23:24;2.60;99.90
7576;DHT22;3829;50.798;4.358;2024-01-07T05:25:50;2.60;99.90
7576;DHT22;3829;50.798;4.358;2024-01-07T05:28:15;2.50;99.90
7576;DHT22;3829;50.798;4.358;2024-01-07T05:30:45;2.60;99.90
7576;DHT22;3829;50.798;4.358;2024-01-07T05:33:10;2.60;99.90
7576;DHT22;3829;50.798;4.358;2024-01-07T05:35:36;2.50;99.90
7576;DHT22;3829;50.798;4.358;2024-01-07T05:38:01;2.50;99.90
7576;DHT22;3829;50.798;4.358;2024-01-07T05:40:27;2.50;99.90
7576;DHT22;3829;50.798;4.358;2024-01-07T05:42:52;2.50;99.90
7576;DHT22;3829;50.798;4.358;2024-01-07T05:45:18;2.50;99.90
7576;DHT22;3829;50.798;4.358;2024-01-07T05:47:43;2.50;99.90
7576;DHT22;3829;50.798;4.358;2024-01-07T05:50:09;2.60;99.90
7576;DHT22;3829;50.798;4.358;2024-01-07T05:52:36;2.60;99.90
7576;DHT22;3829;50.798;4.358;2024-01-07T05:55:02;2.60;99.90
7576;DHT22;3829;50.798;4.358;2024-01-07T05:57:27;2.60;99.90
7576;DHT22;3829;50.798;4.358;2024-01-07T05:59:53;2.60;99.90
7576;DHT22;3829;50.798;4.358;2024-01-07T06:02:18;2.70;99.90
7576;DHT22;3829;50.798;4.358;2024-01-07T06:04:44;2.70;99.90
7576;DHT22;3829;50.798;4.358;2024-01-07T06:07:10;2.60;99.90
7576;DHT22;3829;50.798;4.358;2024-01-07T06:09:35;2.60;99.90
7576;DHT22;3829;50.798;4.358;2024-01-07T06:12:01;2.50;99.90
7576;DHT22;3829;50.798;4.358;2024-01-07T06:14:27;2.50;99.90
7576;DHT22;3829;50.798;4.358;2024-01-07T06:16:52;2.40;99.90
7576;DHT22;3829;50.798;4.358;2024-01-07T06:19:18;2.40;99.90
7576;DHT22;3829;50.798;4.358;2024-01-07T06:21:43;2.40;99.90
7576;DHT22;3829;50.798;4.358;2024-01-07T06:24:09;2.30;99.90
7576;DHT22;3829;50.798;4.358;2024-01-07T06:26:35;2.30;99.90
7576;DHT22;3829;50.798;4.358;2024-01-07T06:29:00;2.40;99.90
7576;DHT22;3829;50.798;4.358;2024-01-07T06:31:26;2.40;99.90
7576;DHT22;3829;50.798;4.358;2024-01-07T06:33:52;2.40;99.90
7576;DHT22;3829;50.798;4.358;2024-01-07T06:36:18;2.50;99.90
7576;DHT22;3829;50.798;4.358;2024-01-07T06:38:43;2.50;99.90
7576;DHT22;3829;50.798;4.358;2024-01-07T06:41:11;2.50;99.90
7576;DHT22;3829;50.798;4.358;2024-01-07T06:43:38;2.50;99.90
7576;DHT22;3829;50.798;4.358;2024-01-07T06:46:04;2.50;99.90
7576;DHT22;3829;50.798;4.358;2024-01-07T06:48:29;2.60;99.90
7576;DHT22;3829;50.798;4.358;2024-01-07T06:50:55;2.60;99.90
7576;DHT22;3829;50.798;4.358;2024-01-07T06:53:20;2.70;99.90
7576;DHT22;3829;50.798;4.358;2024-01-07T06:55:47;2.70;99.90
7576;DHT22;3829;50.798;4.358;2024-01-07T06:58:12;2.70;99.90
7576;DHT22;3829;50.798;4.358;2024-01-07T07:00:38;2.70;99.90
7576;DHT22;3829;50.798;4.358;2024-01-07T07:03:03;2.80;99.90
7576;DHT22;3829;50.798;4.358;2024-01-07T07:05:30;2.70;99.90
7576;DHT22;3829;50.798;4.358;2024-01-07T07:07:56;2.90;99.90
7576;DHT22;3829;50.798;4.358;2024-01-07T07:10:21;2.70;99.90
7576;DHT22;3829;50.798;4.358;2024-01-07T07:12:47;2.80;99.90
7576;DHT22;3829;50.798;4.358;2024-01-07T07:15:13;2.70;99.90
7576;DHT22;3829;50.798;4.358;2024-01-07T07:17:38;2.80;99.90
7576;DHT22;3829;50.798;4.358;2024-01-07T07:20:05;2.70;99.90
7576;DHT22;3829;50.798;4.358;2024-01-07T07:22:31;2.60;99.90
7576;DHT22;3829;50.798;4.358;2024-01-07T07:24:57;2.60;99.90
7576;DHT22;3829;50.798;4.358;2024-01-07T07:27:22;2.60;99.90
7576;DHT22;3829;50.798;4.358;2024-01-07T07:29:48;2.80;99.90
7576;DHT22;3829;50.798;4.358;2024-01-07T07:32:13;2.70;99.90
7576;DHT22;3829;50.798;4.358;2024-01-07T07:34:39;2.60;99.90
7576;DHT22;3829;50.798;4.358;2024-01-07T07:37:04;2.70;99.90
7576;DHT22;3829;50.798;4.358;2024-01-07T07:39:30;2.70;99.90
7576;DHT22;3829;50.798;4.358;2024-01-07T07:41:56;2.80;99.90
7576;DHT22;3829;50.798;4.358;2024-01-07T07:44:21;2.80;99.90
7576;DHT22;3829;50.798;4.358;2024-01-07T07:46:47;2.70;99.90
7576;DHT22;3829;50.798;4.358;2024-01-07T07:49:12;2.70;99.90
7576;DHT22;3829;50.798;4.358;2024-01-07T07:51:39;2.70;99.90
7576;DHT22;3829;50.798;4.358;2024-01-07T07:54:04;2.70;99.90
7576;DHT22;3829;50.798;4.358;2024-01-07T07:56:30;2.70;99.90
7576;DHT22;3829;50.798;4.358;2024-01-07T07:58:55;2.60;99.90
7576;DHT22;3829;50.798;4.358;2024-01-07T08:01:21;2.60;99.90
7576;DHT22;3829;50.798;4.358;2024-01-07T08:03:46;2.70;99.90
7576;DHT22;3829;50.798;4.358;2024-01-07T08:06:12;2.60;99.90
7576;DHT22;3829;50.798;4.358;2024-01-07T08:08:37;2.50;99.90
7576;DHT22;3829;50.798;4.358;2024-01-07T08:11:03;2.50;99.90
7576;DHT22;3829;50.798;4.358;2024-01-07T08:13:34;2.50;99.90
7576;DHT22;3829;50.798;4.358;2024-01-07T08:16:00;2.60;99.90
7576;DHT22;3829;50.798;4.358;2024-01-07T08:18:25;2.60;99.90
7576;DHT22;3829;50.798;4.358;2024-01-07T08:20:51;2.60;99.90
7576;DHT22;3829;50.798;4.358;2024-01-07T08:23:16;2.60;99.90
7576;DHT22;3829;50.798;4.358;2024-01-07T08:25:42;2.60;99.90
7576;DHT22;3829;50.798;4.358;2024-01-07T08:28:07;2.40;99.90
7576;DHT22;3829;50.798;4.358;2024-01-07T08:30:33;2.40;99.90
7576;DHT22;3829;50.798;4.358;2024-01-07T08:32:58;2.40;99.90
7576;DHT22;3829;50.798;4.358;2024-01-07T08:35:24;2.40;99.90
7576;DHT22;3829;50.798;4.358;2024-01-07T08:37:50;2.20;99.90
7576;DHT22;3829;50.798;4.358;2024-01-07T08:40:15;2.50;99.90
7576;DHT22;3829;50.798;4.358;2024-01-07T08:42:42;2.40;99.90
7576;DHT22;3829;50.798;4.358;2024-01-07T08:45:08;2.50;99.90
7576;DHT22;3829;50.798;4.358;2024-01-07T08:47:33;2.50;99.90
7576;DHT22;3829;50.798;4.358;2024-01-07T08:50:01;2.50;99.90
7576;DHT22;3829;50.798;4.358;2024-01-07T08:52:26;2.60;99.90
7576;DHT22;3829;50.798;4.358;2024-01-07T08:54:52;2.60;99.90
7576;DHT22;3829;50.798;4.358;2024-01-07T08:57:17;2.70;99.90
7576;DHT22;3829;50.798;4.358;2024-01-07T08:59:44;2.70;99.90
7576;DHT22;3829;50.798;4.358;2024-01-07T09:02:09;2.60;99.90
7576;DHT22;3829;50.798;4.358;2024-01-07T09:04:35;2.60;99.90
7576;DHT22;3829;50.798;4.358;2024-01-07T09:07:01;2.40;99.90
7576;DHT22;3829;50.798;4.358;2024-01-07T09:09:27;2.50;99.90
7576;DHT22;3829;50.798;4.358;2024-01-07T09:11:52;2.40;99.90
7576;DHT22;3829;50.798;4.358;2024-01-07T09:14:18;2.40;99.90
7576;DHT22;3829;50.798;4.358;2024-01-07T09:16:43;2.40;99.90
7576;DHT22;3829;50.798;4.358;2024-01-07T09:19:09;2.40;99.90
7576;DHT22;3829;50.798;4.358;2024-01-07T09:21:34;2.40;99.90
7576;DHT22;3829;50.798;4.358;2024-01-07T09:24:00;2.40;99.90
7576;DHT22;3829;50.798;4.358;2024-01-07T09:26:25;2.30;99.90
7576;DHT22;3829;50.798;4.358;2024-01-07T09:28:51;2.40;99.90
7576;DHT22;3829;50.798;4.358;2024-01-07T09:31:17;2.50;99.90
7576;DHT22;3829;50.798;4.358;2024-01-07T09:33:42;2.40;99.90
7576;DHT22;3829;50.798;4.358;2024-01-07T09:36:08;2.40;99.90
7576;DHT22;3829;50.798;4.358;2024-01-07T09:38:34;2.30;99.90
7576;DHT22;3829;50.798;4.358;2024-01-07T09:40:59;2.30;99.90
7576;DHT22;3829;50.798;4.358;2024-01-07T09:43:25;2.30;99.90
7576;DHT22;3829;50.798;4.358;2024-01-07T09:45:51;2.30;99.90
7576;DHT22;3829;50.798;4.358;2024-01-07T09:48:18;2.30;99.90
7576;DHT22;3829;50.798;4.358;2024-01-07T09:50:44;2.30;99.90
7576;DHT22;3829;50.798;4.358;2024-01-07T09:53:15;2.20;99.90
7576;DHT22;3829;50.798;4.358;2024-01-07T09:55:55;2.20;99.90
7576;DHT22;3829;50.798;4.358;2024-01-07T09:58:22;2.20;99.90
7576;DHT22;3829;50.798;4.358;2024-01-07T10:00:48;2.30;99.90
7576;DHT22;3829;50.798;4.358;2024-01-07T10:03:14;2.20;99.90
7576;DHT22;3829;50.798;4.358;2024-01-07T10:05:40;2.10;99.90
7576;DHT22;3829;50.798;4.358;2024-01-07T10:08:06;2.20;99.90
7576;DHT22;3829;50.798;4.358;2024-01-07T10:10:32;2.20;99.90
7576;DHT22;3829;50.798;4.358;2024-01-07T10:13:00;2.20;99.90
7576;DHT22;3829;50.798;4.358;2024-01-07T10:15:25;2.30;99.90
7576;DHT22;3829;50.798;4.358;2024-01-07T10:17:55;2.30;99.90
7576;DHT22;3829;50.798;4.358;2024-01-07T10:20:21;2.20;99.90
7576;DHT22;3829;50.798;4.358;2024-01-07T10:22:50;2.30;99.90
7576;DHT22;3829;50.798;4.358;2024-01-07T10:25:16;2.40;99.90
7576;DHT22;3829;50.798;4.358;2024-01-07T10:27:42;2.40;99.90
7576;DHT22;3829;50.798;4.358;2024-01-07T10:30:08;2.40;99.90
7576;DHT22;3829;50.798;4.358;2024-01-07T10:32:35;2.40;99.90
7576;DHT22;3829;50.798;4.358;2024-01-07T10:35:03;2.40;99.90
7576;DHT22;3829;50.798;4.358;2024-01-07T10:37:30;2.20;99.90
7576;DHT22;3829;50.798;4.358;2024-01-07T10:39:58;2.30;99.90
7576;DHT22;3829;50.798;4.358;2024-01-07T10:42:30;2.20;99.90
7576;DHT22;3829;50.798;4.358;2024-01-07T10:44:57;2.20;99.90
7576;DHT22;3829;50.798;4.358;2024-01-07T10:47:23;2.20;99.90
7576;DHT22;3829;50.798;4.358;2024-01-07T10:49:52;2.20;99.90
7576;DHT22;3829;50.798;4.358;2024-01-07T10:52:20;2.20;99.90
7576;DHT22;3829;50.798;4.358;2024-01-07T10:54:47;2.20;99.90
7576;DHT22;3829;50.798;4.358;2024-01-07T10:57:34;2.20;99.90
7576;DHT22;3829;50.798;4.358;2024-01-07T11:00:03;2.30;99.90
7576;DHT22;3829;50.798;4.358;2024-01-07T11:02:44;2.20;99.90
7576;DHT22;3829;50.798;4.358;2024-01-07T11:05:28;2.30;99.90
7576;DHT22;3829;50.798;4.358;2024-01-07T11:08:06;2.20;99.90
7576;DHT22;3829;50.798;4.358;2024-01-07T11:10:41;2.10;99.90
7576;DHT22;3829;50.798;4.358;2024-01-07T11:13:08;2.20;99.90
7576;DHT22;3829;50.798;4.358;2024-01-07T11:15:51;2.20;99.90
7576;DHT22;3829;50.798;4.358;2024-01-07T11:18:18;2.20;99.90
7576;DHT22;3829;50.798;4.358;2024-01-07T11:20:45;2.20;99.90
7576;DHT22;3829;50.798;4.358;2024-01-07T11:23:29;2.10;99.90
7576;DHT22;3829;50.798;4.358;2024-01-07T11:25:57;2.20;99.90
7576;DHT22;3829;50.798;4.358;2024-01-07T11:31:08;2.00;99.90
7576;DHT22;3829;50.798;4.358;2024-01-07T11:33:36;2.10;99.90
7576;DHT22;3829;50.798;4.358;2024-01-07T11:36:04;2.10;99.90
7576;DHT22;3829;50.798;4.358;2024-01-07T11:38:30;2.10;99.90
7576;DHT22;3829;50.798;4.358;2024-01-07T11:40:57;2.20;99.90
7576;DHT22;3829;50.798;4.358;2024-01-07T11:43:22;2.10;99.90
7576;DHT22;3829;50.798;4.358;2024-01-07T11:45:50;2.10;99.90
7576;DHT22;3829;50.798;4.358;2024-01-07T11:48:16;2.00;99.90
7576;DHT22;3829;50.798;4.358;2024-01-07T11:50:42;2.10;99.90
7576;DHT22;3829;50.798;4.358;2024-01-07T11:53:07;2.10;99.90
7576;DHT22;3829;50.798;4.358;2024-01-07T11:55:33;2.00;99.90
7576;DHT22;3829;50.798;4.358;2024-01-07T11:58:01;2.10;99.90
7576;DHT22;3829;50.798;4.358;2024-01-07T12:00:27;2.20;99.90
7576;DHT22;3829;50.798;4.358;2024-01-07T12:02:53;2.20;99.90
7576;DHT22;3829;50.798;4.358;2024-01-07T12:05:18;2.30;99.90
7576;DHT22;3829;50.798;4.358;2024-01-07T12:07:44;2.30;99.90
7576;DHT22;3829;50.798;4.358;2024-01-07T12:10:10;2.30;99.90
7576;DHT22;3829;50.798;4.358;2024-01-07T12:12:39;2.40;99.90
7576;DHT22;3829;50.798;4.358;2024-01-07T12:15:05;2.40;99.90
7576;DHT22;3829;50.798;4.358;2024-01-07T12:17:31;2.40;99.90
7576;DHT22;3829;50.798;4.358;2024-01-07T12:19:57;2.40;99.90
7576;DHT22;3829;50.798;4.358;2024-01-07T12:22:22;2.30;99.90
7576;DHT22;3829;50.798;4.358;2024-01-07T12:25:00;2.20;99.90
7576;DHT22;3829;50.798;4.358;2024-01-07T12:27:26;2.20;99.90
7576;DHT22;3829;50.798;4.358;2024-01-07T12:29:59;2.30;99.90
7576;DHT22;3829;50.798;4.358;2024-01-07T12:32:29;2.20;99.90
7576;DHT22;3829;50.798;4.358;2024-01-07T12:34:57;2.10;99.90
7576;DHT22;3829;50.798;4.358;2024-01-07T12:37:26;2.20;99.90
7576;DHT22;3829;50.798;4.358;2024-01-07T12:39:52;2.30;99.90
7576;DHT22;3829;50.798;4.358;2024-01-07T12:42:17;2.20;99.90
7576;DHT22;3829;50.798;4.358;2024-01-07T12:44:43;2.30;99.90
7576;DHT22;3829;50.798;4.358;2024-01-07T12:47:09;2.30;99.90
7576;DHT22;3829;50.798;4.358;2024-01-07T12:49:34;2.20;99.90
7576;DHT22;3829;50.798;4.358;2024-01-07T12:52:00;1.90;99.90
7576;DHT22;3829;50.798;4.358;2024-01-07T12:54:25;2.10;99.90
7576;DHT22;3829;50.798;4.358;2024-01-07T12:56:51;2.10;99.90
7576;DHT22;3829;50.798;4.358;2024-01-07T12:59:17;2.00;99.90
7576;DHT22;3829;50.798;4.358;2024-01-07T13:01:43;2.00;99.90
7576;DHT22;3829;50.798;4.358;2024-01-07T13:04:08;2.00;99.90
7576;DHT22;3829;50.798;4.358;2024-01-07T13:06:34;2.00;99.90
7576;DHT22;3829;50.798;4.358;2024-01-07T13:09:00;2.10;99.90
7576;DHT22;3829;50.798;4.358;2024-01-07T13:11:26;2.20;99.90
7576;DHT22;3829;50.798;4.358;2024-01-07T13:13:51;2.00;99.90
7576;DHT22;3829;50.798;4.358;2024-01-07T13:16:17;2.10;99.90
7576;DHT22;3829;50.798;4.358;2024-01-07T13:18:44;2.10;99.90
7576;DHT22;3829;50.798;4.358;2024-01-07T13:21:09;2.10;99.90
7576;DHT22;3829;50.798;4.358;2024-01-07T13:23:35;2.10;99.90
7576;DHT22;3829;50.798;4.358;2024-01-07T13:26:01;2.20;99.90
7576;DHT22;3829;50.798;4.358;2024-01-07T13:28:31;2.10;99.90
7576;DHT22;3829;50.798;4.358;2024-01-07T13:30:57;2.10;99.90
7576;DHT22;3829;50.798;4.358;2024-01-07T13:33:22;2.00;99.90
7576;DHT22;3829;50.798;4.358;2024-01-07T13:35:48;1.90;99.90
7576;DHT22;3829;50.798;4.358;2024-01-07T13:38:13;2.00;99.90
7576;DHT22;3829;50.798;4.358;2024-01-07T13:40:39;2.00;99.90
7576;DHT22;3829;50.798;4.358;2024-01-07T13:43:04;1.90;99.90
7576;DHT22;3829;50.798;4.358;2024-01-07T13:45:30;1.90;99.90
7576;DHT22;3829;50.798;4.358;2024-01-07T13:47:55;1.90;99.90
7576;DHT22;3829;50.798;4.358;2024-01-07T13:50:21;1.90;99.90
7576;DHT22;3829;50.798;4.358;2024-01-07T13:52:47;1.80;99.90
7576;DHT22;3829;50.798;4.358;2024-01-07T13:55:12;1.70;99.90
7576;DHT22;3829;50.798;4.358;2024-01-07T13:57:38;1.80;99.90
7576;DHT22;3829;50.798;4.358;2024-01-07T14:00:05;1.80;99.90
7576;DHT22;3829;50.798;4.358;2024-01-07T14:02:35;1.70;99.90
7576;DHT22;3829;50.798;4.358;2024-01-07T14:05:03;1.60;99.90
7576;DHT22;3829;50.798;4.358;2024-01-07T14:07:31;1.60;99.90
7576;DHT22;3829;50.798;4.358;2024-01-07T14:09:56;1.70;99.90
7576;DHT22;3829;50.798;4.358;2024-01-07T14:12:22;1.70;99.90
7576;DHT22;3829;50.798;4.358;2024-01-07T14:14:47;1.60;99.90
7576;DHT22;3829;50.798;4.358;2024-01-07T14:17:13;1.70;99.90
7576;DHT22;3829;50.798;4.358;2024-01-07T14:19:38;1.80;99.90
7576;DHT22;3829;50.798;4.358;2024-01-07T14:22:04;1.70;99.90
7576;DHT22;3829;50.798;4.358;2024-01-07T14:24:30;1.80;99.90
7576;DHT22;3829;50.798;4.358;2024-01-07T14:26:55;1.80;99.90
7576;DHT22;3829;50.798;4.358;2024-01-07T14:29:21;1.80;99.90
7576;DHT22;3829;50.798;4.358;2024-01-07T14:31:46;1.80;99.90
7576;DHT22;3829;50.798;4.358;2024-01-07T14:34:13;1.80;99.90
7576;DHT22;3829;50.798;4.358;2024-01-07T14:36:40;1.80;99.90
7576;DHT22;3829;50.798;4.358;2024-01-07T14:39:07;1.90;99.90
7576;DHT22;3829;50.798;4.358;2024-01-07T14:41:34;1.90;99.90
7576;DHT22;3829;50.798;4.358;2024-01-07T14:44:00;1.90;99.90
7576;DHT22;3829;50.798;4.358;2024-01-07T14:46:25;1.90;99.90
7576;DHT22;3829;50.798;4.358;2024-01-07T14:48:51;1.70;99.90
7576;DHT22;3829;50.798;4.358;2024-01-07T14:51:16;1.80;99.90
7576;DHT22;3829;50.798;4.358;2024-01-07T14:53:42;1.90;99.90
7576;DHT22;3829;50.798;4.358;2024-01-07T14:56:07;1.80;99.90
7576;DHT22;3829;50.798;4.358;2024-01-07T14:58:33;1.90;99.90
7576;DHT22;3829;50.798;4.358;2024-01-07T15:00:59;1.90;99.90
7576;DHT22;3829;50.798;4.358;2024-01-07T15:03:26;2.00;99.90
7576;DHT22;3829;50.798;4.358;2024-01-07T15:05:51;1.80;99.90
7576;DHT22;3829;50.798;4.358;2024-01-07T15:08:17;1.80;99.90
7576;DHT22;3829;50.798;4.358;2024-01-07T15:10:44;1.80;99.90
7576;DHT22;3829;50.798;4.358;2024-01-07T15:13:09;1.80;99.90
7576;DHT22;3829;50.798;4.358;2024-01-07T15:15:36;1.80;99.90
7576;DHT22;3829;50.798;4.358;2024-01-07T15:18:02;1.70;99.90
7576;DHT22;3829;50.798;4.358;2024-01-07T15:20:28;1.80;99.90
7576;DHT22;3829;50.798;4.358;2024-01-07T15:22:54;1.80;99.90
7576;DHT22;3829;50.798;4.358;2024-01-07T15:25:20;1.80;99.90
7576;DHT22;3829;50.798;4.358;2024-01-07T15:27:45;1.70;99.90
7576;DHT22;3829;50.798;4.358;2024-01-07T15:30:11;1.70;99.90
7576;DHT22;3829;50.798;4.358;2024-01-07T15:32:37;1.70;99.90
7576;DHT22;3829;50.798;4.358;2024-01-07T15:35:04;1.70;99.90
7576;DHT22;3829;50.798;4.358;2024-01-07T15:37:31;1.70;99.90
7576;DHT22;3829;50.798;4.358;2024-01-07T15:39:57;1.70;99.90
7576;DHT22;3829;50.798;4.358;2024-01-07T15:42:22;1.70;99.90
7576;DHT22;3829;50.798;4.358;2024-01-07T15:44:49;1.70;99.90
7576;DHT22;3829;50.798;4.358;2024-01-07T15:47:14;1.70;99.90
7576;DHT22;3829;50.798;4.358;2024-01-07T15:49:40;1.60;99.90
7576;DHT22;3829;50.798;4.358;2024-01-07T15:52:05;1.70;99.90
7576;DHT22;3829;50.798;4.358;2024-01-07T15:54:31;1.60;99.90
7576;DHT22;3829;50.798;4.358;2024-01-07T15:56:57;1.60;99.90
7576;DHT22;3829;50.798;4.358;2024-01-07T15:59:23;1.60;99.90
7576;DHT22;3829;50.798;4.358;2024-01-07T16:01:49;1.60;99.90
7576;DHT22;3829;50.798;4.358;2024-01-07T16:04:14;1.50;99.90
7576;DHT22;3829;50.798;4.358;2024-01-07T16:06:42;1.50;99.90
7576;DHT22;3829;50.798;4.358;2024-01-07T16:09:11;1.40;99.90
7576;DHT22;3829;50.798;4.358;2024-01-07T16:11:37;1.40;99.90